Time;durP1;ratioP1;P1;durP2;ratioP2;P2;SDS_P1;SDS_P2;PMS_P1;PMS_P2;Temp;Humidity;BMP_temperature;BMP_pressure;BME280_temperature;BME280_humidity;BME280_pressure;Samples;Min_cycle;Max_cycle;Signal;HPM_P1;HPM_P2
2021/06/06 00:01:39;;;;;;;66.20;41.00;;;18.40;89.50;;;;;;5045932;28;20811;-47
2021/06/06 00:04:19;;;;;;;67.87;41.20;;;18.50;89.40;;;;;;5042460;28;20461;-48
2021/06/06 00:07:06;;;;;;;72.67;39.87;;;18.40;89.00;;;;;;5045718;28;20543;-47
2021/06/06 00:09:34;;;;;;;68.43;39.27;;;18.40;89.00;;;;;;5044301;28;20970;-47
2021/06/06 00:12:03;;;;;;;68.40;40.47;;;18.40;89.10;;;;;;5041314;28;20466;-48
2021/06/06 00:14:34;;;;;;;71.33;40.30;;;18.40;89.00;;;;;;5041005;28;20486;-48
2021/06/06 00:17:06;;;;;;;68.97;39.17;;;18.40;89.40;;;;;;5037301;28;20463;-47
2021/06/06 00:19:35;;;;;;;71.83;41.60;;;18.40;89.00;;;;;;5041358;28;21042;-47
2021/06/06 00:22:06;;;;;;;73.83;40.00;;;18.30;89.20;;;;;;5039185;28;21096;-47
2021/06/06 00:24:38;;;;;;;77.97;44.63;;;18.30;89.40;;;;;;5040807;28;20479;-47
2021/06/06 00:27:08;;;;;;;78.23;41.40;;;18.30;89.40;;;;;;5043590;28;20467;-47
2021/06/06 00:29:37;;;;;;;78.20;41.33;;;18.30;89.60;;;;;;5043942;28;20457;-48
2021/06/06 00:32:05;;;;;;;72.43;41.07;;;18.30;89.50;;;;;;5041322;28;20814;-47
2021/06/06 00:34:33;;;;;;;74.90;42.60;;;18.30;89.70;;;;;;5042393;28;20455;-47
2021/06/06 00:37:01;;;;;;;81.83;43.90;;;18.30;89.70;;;;;;5040354;28;20455;-47
2021/06/06 00:39:29;;;;;;;69.70;42.03;;;18.30;89.80;;;;;;5046872;28;20493;-47
2021/06/06 00:41:59;;;;;;;83.10;48.07;;;18.30;89.80;;;;;;5043692;28;20466;-48
2021/06/06 00:44:27;;;;;;;76.93;46.27;;;18.30;89.80;;;;;;5042492;28;20447;-47
2021/06/06 00:46:55;;;;;;;83.63;45.10;;;18.30;89.80;;;;;;5042177;28;20466;-48
2021/06/06 00:49:23;;;;;;;80.70;46.30;;;18.40;89.00;;;;;;5041228;28;20470;-47
2021/06/06 00:51:56;;;;;;;82.80;45.90;;;18.40;89.00;;;;;;5042063;28;20451;-47
2021/06/06 00:54:52;;;;;;;72.20;44.17;;;18.30;88.80;;;;;;5042817;28;20458;-47
2021/06/06 00:57:27;;;;;;;76.43;44.90;;;18.40;88.80;;;;;;5041366;28;20477;-47
2021/06/06 01:00:06;;;;;;;79.67;44.07;;;18.30;89.00;;;;;;5043994;28;20473;-47
2021/06/06 01:02:34;;;;;;;76.07;43.30;;;18.40;89.00;;;;;;5041995;28;20455;-49
2021/06/06 01:05:26;;;;;;;79.23;45.30;;;18.30;89.10;;;;;;5043278;28;20479;-47
2021/06/06 01:07:54;;;;;;;76.67;40.73;;;18.20;89.50;;;;;;5042073;28;20513;-48
2021/06/06 01:10:22;;;;;;;84.13;44.80;;;18.20;89.40;;;;;;5041219;28;20478;-47
2021/06/06 01:13:01;;;;;;;78.40;45.33;;;18.20;89.60;;;;;;5038814;28;20478;-47
2021/06/06 01:15:34;;;;;;;75.93;44.23;;;18.20;89.40;;;;;;5038879;28;20478;-47
2021/06/06 01:18:11;;;;;;;81.80;44.30;;;18.20;89.60;;;;;;5041848;28;21009;-48
2021/06/06 01:20:51;;;;;;;80.03;44.67;;;18.20;89.00;;;;;;5041014;28;20965;-47
2021/06/06 01:23:35;;;;;;;82.40;45.87;;;18.20;88.90;;;;;;5044571;28;20457;-47
2021/06/06 01:26:11;;;;;;;80.90;45.20;;;18.20;89.10;;;;;;5043335;28;20932;-47
2021/06/06 01:28:54;;;;;;;85.70;43.30;;;18.20;89.00;;;;;;5040763;28;20528;-47
2021/06/06 01:31:24;;;;;;;74.37;43.10;;;18.20;89.10;;;;;;5040377;28;20482;-47
2021/06/06 01:33:59;;;;;;;77.00;44.17;;;18.20;89.20;;;;;;5043077;28;20478;-48
2021/06/06 01:36:48;;;;;;;83.53;45.73;;;18.20;89.30;;;;;;5041172;28;20820;-48
2021/06/06 01:39:43;;;;;;;79.53;45.33;;;18.20;89.20;;;;;;5027220;28;20494;-47
2021/06/06 01:42:23;;;;;;;84.60;44.30;;;18.20;88.80;;;;;;5040704;28;20805;-47
2021/06/06 01:44:56;;;;;;;84.10;44.90;;;18.10;88.90;;;;;;5044708;28;20569;-47
2021/06/06 01:47:27;;;;;;;82.20;46.70;;;18.20;88.80;;;;;;5042394;28;20462;-48
2021/06/06 01:50:14;;;;;;;76.23;43.17;;;18.20;88.80;;;;;;5040518;28;20473;-47
2021/06/06 01:52:43;;;;;;;85.17;46.83;;;18.20;88.20;;;;;;5041678;28;20933;-47
2021/06/06 01:55:16;;;;;;;77.43;44.60;;;18.20;88.20;;;;;;5040720;28;20455;-47
2021/06/06 01:57:45;;;;;;;80.07;45.00;;;18.20;88.40;;;;;;5039727;28;20465;-47
2021/06/06 02:00:18;;;;;;;77.80;45.27;;;18.20;88.10;;;;;;5040136;28;20456;-47
2021/06/06 02:02:46;;;;;;;74.40;43.80;;;18.10;88.30;;;;;;5041050;28;20458;-47
2021/06/06 02:05:16;;;;;;;77.27;44.00;;;18.10;88.40;;;;;;5046029;28;20455;-47
2021/06/06 02:07:47;;;;;;;77.13;42.27;;;18.10;88.40;;;;;;5041654;28;20875;-48
2021/06/06 02:10:19;;;;;;;75.27;42.40;;;18.10;88.40;;;;;;5042946;28;20464;-47
2021/06/06 02:12:52;;;;;;;72.50;41.50;;;18.10;88.50;;;;;;5040797;28;20830;-49
2021/06/06 02:15:32;;;;;;;74.10;44.20;;;18.10;88.30;;;;;;5041701;28;20866;-47
2021/06/06 02:18:03;;;;;;;69.07;40.40;;;18.10;88.50;;;;;;5044651;28;20820;-48
2021/06/06 02:20:39;;;;;;;73.40;41.20;;;18.10;88.40;;;;;;5042722;28;20809;-47
2021/06/06 02:23:08;;;;;;;71.17;40.70;;;18.10;88.40;;;;;;5044011;28;20456;-47
2021/06/06 02:25:37;;;;;;;72.90;43.77;;;18.10;88.60;;;;;;5044981;28;20458;-48
2021/06/06 02:28:23;;;;;;;77.97;43.53;;;18.10;88.50;;;;;;5044227;28;20459;-47
2021/06/06 02:30:54;;;;;;;76.80;44.90;;;18.10;88.60;;;;;;5041281;28;20454;-47
2021/06/06 02:33:33;;;;;;;73.53;44.53;;;18.10;88.70;;;;;;5046506;28;20824;-48
2021/06/06 02:36:06;;;;;;;75.87;41.17;;;18.10;88.30;;;;;;5044486;28;20457;-48
2021/06/06 02:38:43;;;;;;;74.40;44.20;;;18.10;88.20;;;;;;5045483;28;20513;-48
2021/06/06 02:41:28;;;;;;;77.10;45.30;;;18.10;88.30;;;;;;5043993;28;20958;-48
2021/06/06 02:44:11;;;;;;;72.70;41.67;;;18.10;88.40;;;;;;5043216;28;21004;-49
2021/06/06 02:46:44;;;;;;;69.30;38.73;;;18.00;88.60;;;;;;5046059;28;20971;-49
2021/06/06 02:49:16;;;;;;;73.13;42.97;;;18.00;88.90;;;;;;5042696;28;20803;-49
2021/06/06 02:51:52;;;;;;;77.33;45.67;;;18.00;89.10;;;;;;5042521;28;21021;-49
2021/06/06 02:54:24;;;;;;;82.03;46.40;;;18.00;88.80;;;;;;5042152;28;20462;-49
2021/06/06 02:56:59;;;;;;;73.17;41.80;;;18.00;89.00;;;;;;5046410;28;20462;-49
2021/06/06 02:59:34;;;;;;;66.83;41.90;;;18.00;88.90;;;;;;5047826;28;20482;-47
2021/06/06 03:02:08;;;;;;;78.40;44.87;;;17.90;89.00;;;;;;5043151;28;21076;-46
2021/06/06 03:04:43;;;;;;;77.30;44.80;;;18.00;89.00;;;;;;5047376;28;20454;-46
2021/06/06 03:07:18;;;;;;;76.77;42.67;;;18.00;89.00;;;;;;5042848;28;20459;-45
2021/06/06 03:09:46;;;;;;;71.87;43.80;;;18.00;88.90;;;;;;5046477;28;20863;-46
2021/06/06 03:12:17;;;;;;;76.17;43.43;;;18.00;88.90;;;;;;5043371;28;21814;-46
2021/06/06 03:14:49;;;;;;;72.50;42.30;;;17.90;88.90;;;;;;5041130;28;20455;-45
2021/06/06 03:17:28;;;;;;;74.73;43.33;;;17.90;88.40;;;;;;5045665;28;20463;-45
2021/06/06 03:19:59;;;;;;;67.33;41.17;;;17.90;88.50;;;;;;5041374;28;20507;-45
2021/06/06 03:22:32;;;;;;;71.37;43.33;;;17.90;88.20;;;;;;5041393;28;20467;-46
2021/06/06 03:25:07;;;;;;;69.30;42.00;;;17.90;88.00;;;;;;5043850;28;20481;-45
2021/06/06 03:27:41;;;;;;;70.00;42.60;;;17.90;88.30;;;;;;5046553;28;20477;-45
2021/06/06 03:30:09;;;;;;;67.50;39.93;;;17.90;88.40;;;;;;5042438;28;20462;-46
2021/06/06 03:32:40;;;;;;;72.83;42.67;;;17.90;88.40;;;;;;5043312;28;20467;-46
2021/06/06 03:35:10;;;;;;;65.80;42.00;;;17.90;88.50;;;;;;5043648;28;20460;-45
2021/06/06 03:37:39;;;;;;;66.57;41.03;;;17.90;88.50;;;;;;5042664;28;20454;-46
2021/06/06 03:40:10;;;;;;;62.47;39.37;;;17.90;88.40;;;;;;5040046;28;20502;-46
2021/06/06 03:42:39;;;;;;;61.50;39.00;;;17.80;88.30;;;;;;5042818;28;20475;-45
2021/06/06 03:45:10;;;;;;;60.07;39.20;;;17.80;88.30;;;;;;5045973;28;20494;-46
2021/06/06 03:47:38;;;;;;;61.40;39.10;;;17.80;87.70;;;;;;5041870;28;20463;-46
2021/06/06 03:50:13;;;;;;;66.13;37.87;;;17.80;87.70;;;;;;5046466;28;20970;-45
2021/06/06 03:52:43;;;;;;;62.60;37.20;;;17.80;88.00;;;;;;5045021;28;20460;-45
2021/06/06 03:55:15;;;;;;;59.70;37.17;;;17.80;87.90;;;;;;5042998;28;20824;-46
2021/06/06 03:57:44;;;;;;;61.73;37.20;;;17.80;87.60;;;;;;5043114;28;20967;-45
2021/06/06 04:00:20;;;;;;;53.43;34.70;;;17.80;87.70;;;;;;5042652;28;20497;-46
2021/06/06 04:02:48;;;;;;;65.60;38.70;;;17.70;87.40;;;;;;5039519;28;20843;-45
2021/06/06 04:05:17;;;;;;;59.27;37.63;;;17.70;87.20;;;;;;5041740;28;20532;-46
2021/06/06 04:07:46;;;;;;;56.63;34.80;;;17.70;86.90;;;;;;5041982;28;20471;-45
2021/06/06 04:10:14;;;;;;;56.57;35.10;;;17.70;86.90;;;;;;5043862;28;21277;-46
2021/06/06 04:12:42;;;;;;;56.13;34.47;;;17.70;86.80;;;;;;5041806;28;20973;-46
2021/06/06 04:15:11;;;;;;;56.27;34.90;;;17.60;86.90;;;;;;5040185;28;20454;-46
2021/06/06 04:17:39;;;;;;;61.67;36.00;;;17.60;87.00;;;;;;5042917;28;20454;-45
2021/06/06 04:20:09;;;;;;;54.33;34.17;;;17.60;87.10;;;;;;5041021;28;20483;-45
2021/06/06 04:22:37;;;;;;;51.33;34.40;;;17.50;86.80;;;;;;5046472;28;20935;-46
2021/06/06 04:25:08;;;;;;;54.73;35.17;;;17.50;86.70;;;;;;5039827;28;21016;-46
2021/06/06 04:27:36;;;;;;;55.70;33.83;;;17.50;87.00;;;;;;5042810;28;20466;-45
2021/06/06 04:30:06;;;;;;;58.17;35.47;;;17.50;87.10;;;;;;5041564;28;20458;-46
2021/06/06 04:32:33;;;;;;;54.73;33.90;;;17.50;87.40;;;;;;5039802;28;20478;-46
2021/06/06 04:35:02;;;;;;;49.80;33.20;;;17.40;87.50;;;;;;5041644;28;20952;-45
2021/06/06 04:37:30;;;;;;;51.67;32.80;;;17.50;87.20;;;;;;5045034;28;20999;-46
2021/06/06 04:40:03;;;;;;;54.23;34.50;;;17.50;87.30;;;;;;5041512;28;20490;-45
2021/06/06 04:42:31;;;;;;;54.13;33.60;;;17.50;87.10;;;;;;5042295;28;21253;-46
2021/06/06 04:44:59;;;;;;;52.97;33.13;;;17.50;87.10;;;;;;5041732;28;20463;-45
2021/06/06 04:47:27;;;;;;;52.20;34.63;;;17.50;87.30;;;;;;5041013;28;21888;-45
2021/06/06 04:49:55;;;;;;;53.17;32.73;;;17.40;87.50;;;;;;5040814;28;20463;-45
2021/06/06 04:52:26;;;;;;;51.50;31.90;;;17.40;87.70;;;;;;5046629;28;20481;-45
2021/06/06 04:54:54;;;;;;;55.13;34.33;;;17.40;87.90;;;;;;5041869;28;20927;-45
2021/06/06 04:57:22;;;;;;;62.63;36.23;;;17.40;88.20;;;;;;5043047;28;20454;-45
2021/06/06 04:59:50;;;;;;;55.40;35.10;;;17.40;88.20;;;;;;5038242;28;20491;-44
2021/06/06 05:02:18;;;;;;;56.47;36.83;;;17.50;88.00;;;;;;5041270;28;20788;-45
2021/06/06 05:04:48;;;;;;;52.47;34.37;;;17.50;88.00;;;;;;5038533;28;20466;-45
2021/06/06 05:07:16;;;;;;;56.33;34.00;;;17.50;88.20;;;;;;5041617;28;20454;-46
2021/06/06 05:09:44;;;;;;;54.40;32.53;;;17.50;88.30;;;;;;5040968;28;20518;-45
2021/06/06 05:12:12;;;;;;;49.17;31.97;;;17.50;88.20;;;;;;5040302;28;20465;-45
2021/06/06 05:14:41;;;;;;;45.40;29.60;;;17.60;87.90;;;;;;5044142;28;20575;-45
2021/06/06 05:17:09;;;;;;;44.17;29.07;;;17.60;87.70;;;;;;5041676;28;20466;-44
2021/06/06 05:19:37;;;;;;;43.40;31.27;;;17.70;87.20;;;;;;5041252;28;20510;-46
2021/06/06 05:22:05;;;;;;;45.67;28.97;;;17.70;86.90;;;;;;5041693;28;20475;-45
2021/06/06 05:24:33;;;;;;;45.27;29.03;;;17.70;86.40;;;;;;5039053;28;20451;-45
2021/06/06 05:27:01;;;;;;;44.13;30.60;;;17.80;86.40;;;;;;5040103;28;20962;-45
2021/06/06 05:29:29;;;;;;;50.13;30.13;;;17.80;86.10;;;;;;5043839;28;20497;-45
2021/06/06 05:31:57;;;;;;;44.00;27.50;;;17.80;85.90;;;;;;5041184;28;20462;-45
2021/06/06 05:34:25;;;;;;;42.37;28.20;;;17.80;85.80;;;;;;5039551;28;20509;-46
2021/06/06 05:36:53;;;;;;;45.73;28.60;;;17.80;85.80;;;;;;5044292;28;20458;-45
2021/06/06 05:39:22;;;;;;;44.33;28.43;;;17.80;85.70;;;;;;5047521;28;20493;-45
2021/06/06 05:41:50;;;;;;;43.20;26.10;;;17.80;85.60;;;;;;5042889;28;20455;-45
2021/06/06 05:44:18;;;;;;;46.37;28.77;;;17.80;85.00;;;;;;5041127;28;20446;-47
2021/06/06 05:46:46;;;;;;;45.00;28.47;;;17.80;84.80;;;;;;5038688;28;20466;-46
2021/06/06 05:49:14;;;;;;;45.37;30.37;;;17.80;84.90;;;;;;5041144;28;20951;-47
2021/06/06 05:51:42;;;;;;;47.33;28.83;;;17.80;85.10;;;;;;5039229;28;21145;-47
2021/06/06 05:54:12;;;;;;;45.10;30.20;;;17.80;84.90;;;;;;5043723;28;20451;-46
2021/06/06 05:56:43;;;;;;;41.47;27.70;;;17.90;84.40;;;;;;5047973;28;20911;-47
2021/06/06 05:59:11;;;;;;;49.70;30.53;;;17.80;84.80;;;;;;5059636;28;20676;-47
2021/06/06 06:01:39;;;;;;;44.20;28.67;;;17.80;84.90;;;;;;5047752;28;20922;-46
2021/06/06 06:04:08;;;;;;;45.20;28.20;;;17.90;85.00;;;;;;5042176;28;20865;-47
2021/06/06 06:06:36;;;;;;;46.43;27.30;;;17.90;84.70;;;;;;5043016;28;20471;-46
2021/06/06 06:09:04;;;;;;;43.90;28.03;;;17.90;85.20;;;;;;5045054;28;21010;-46
2021/06/06 06:11:33;;;;;;;43.77;26.70;;;17.90;85.20;;;;;;5045072;28;20454;-47
2021/06/06 06:14:01;;;;;;;34.60;25.63;;;17.90;84.70;;;;;;5040406;28;20492;-46
2021/06/06 06:16:33;;;;;;;37.37;25.33;;;18.00;84.20;;;;;;5041203;28;20460;-47
2021/06/06 06:19:01;;;;;;;36.30;23.87;;;18.00;83.80;;;;;;5039614;28;20932;-46
2021/06/06 06:21:31;;;;;;;36.73;25.03;;;17.90;84.00;;;;;;5043790;28;20956;-47
2021/06/06 06:23:59;;;;;;;34.33;24.40;;;18.00;83.60;;;;;;5041392;28;20793;-46
2021/06/06 06:26:28;;;;;;;36.63;24.63;;;18.00;83.90;;;;;;5041459;28;20907;-47
2021/06/06 06:28:56;;;;;;;34.60;25.57;;;17.90;84.10;;;;;;5043628;28;20479;-47
2021/06/06 06:31:23;;;;;;;34.63;24.20;;;18.00;84.10;;;;;;5041410;28;20451;-47
2021/06/06 06:33:52;;;;;;;31.30;21.33;;;18.00;84.20;;;;;;5043770;28;20997;-46
2021/06/06 06:36:21;;;;;;;31.63;21.57;;;18.00;84.00;;;;;;5043012;28;20455;-47
2021/06/06 06:38:53;;;;;;;32.23;21.43;;;18.10;83.20;;;;;;5046650;28;20523;-46
2021/06/06 06:41:24;;;;;;;34.60;22.50;;;18.10;83.40;;;;;;5042566;28;20489;-46
2021/06/06 06:43:53;;;;;;;29.80;21.00;;;18.10;82.80;;;;;;5040910;28;20465;-47
2021/06/06 06:46:23;;;;;;;29.37;20.00;;;18.20;82.40;;;;;;5042317;28;20478;-46
2021/06/06 06:48:53;;;;;;;28.20;20.60;;;18.20;82.30;;;;;;5043418;28;20464;-47
2021/06/06 06:51:22;;;;;;;26.93;20.73;;;18.20;82.50;;;;;;5041617;28;21204;-46
2021/06/06 06:53:54;;;;;;;31.07;21.10;;;18.20;82.50;;;;;;5042779;28;20808;-46
2021/06/06 06:56:27;;;;;;;28.17;19.23;;;18.20;82.60;;;;;;5040598;28;20915;-47
2021/06/06 06:58:56;;;;;;;30.90;21.50;;;18.30;82.40;;;;;;5040129;28;20466;-47
2021/06/06 07:01:25;;;;;;;28.77;19.73;;;18.40;82.00;;;;;;5044767;28;21025;-46
2021/06/06 07:03:53;;;;;;;29.07;21.33;;;18.40;81.40;;;;;;5042637;28;20463;-46
2021/06/06 07:06:22;;;;;;;28.57;19.40;;;18.50;81.40;;;;;;5044045;28;20470;-46
2021/06/06 07:08:50;;;;;;;28.13;21.10;;;18.50;81.50;;;;;;5042967;28;20846;-46
2021/06/06 07:11:22;;;;;;;31.80;20.30;;;18.60;81.00;;;;;;5047247;28;21226;-46
2021/06/06 07:13:51;;;;;;;33.37;23.63;;;18.60;80.60;;;;;;5044255;28;20520;-46
2021/06/06 07:16:20;;;;;;;34.00;20.90;;;18.60;80.50;;;;;;5044833;28;20451;-47
2021/06/06 07:18:49;;;;;;;34.60;22.00;;;18.60;80.70;;;;;;5040538;28;20455;-46
2021/06/06 07:21:21;;;;;;;30.77;21.23;;;18.70;80.70;;;;;;5048203;28;20482;-46
2021/06/06 07:23:50;;;;;;;31.97;20.27;;;18.70;80.50;;;;;;5047070;28;20446;-47
2021/06/06 07:26:28;;;;;;;32.03;19.60;;;18.70;80.00;;;;;;5042930;28;20954;-47
2021/06/06 07:28:59;;;;;;;25.43;17.20;;;18.80;80.10;;;;;;5040969;28;20463;-46
2021/06/06 07:31:29;;;;;;;31.37;19.47;;;18.90;79.40;;;;;;5045395;28;20459;-46
2021/06/06 07:34:13;;;;;;;25.30;18.40;;;18.90;79.60;;;;;;5043794;28;20538;-47
2021/06/06 07:36:43;;;;;;;24.03;16.60;;;18.90;79.30;;;;;;5043056;28;20461;-46
2021/06/06 07:39:12;;;;;;;25.50;17.53;;;19.00;78.70;;;;;;5044613;28;20470;-46
2021/06/06 07:41:40;;;;;;;22.83;16.20;;;19.00;78.10;;;;;;5045748;28;20470;-46
2021/06/06 07:44:09;;;;;;;24.03;15.70;;;19.00;78.30;;;;;;5044937;28;20466;-47
2021/06/06 07:46:37;;;;;;;20.90;15.60;;;19.00;78.60;;;;;;5044496;28;20498;-46
2021/06/06 07:49:05;;;;;;;19.40;14.23;;;19.10;78.60;;;;;;5041853;28;20954;-46
2021/06/06 07:51:34;;;;;;;18.43;13.30;;;19.10;78.70;;;;;;5040554;28;21097;-46
2021/06/06 07:54:05;;;;;;;18.30;13.13;;;19.10;78.10;;;;;;5044022;28;20452;-47
2021/06/06 07:56:34;;;;;;;18.27;13.60;;;19.20;78.60;;;;;;5041653;28;20481;-47
2021/06/06 07:59:04;;;;;;;15.97;12.00;;;19.20;78.40;;;;;;5041308;28;20776;-47
2021/06/06 08:01:32;;;;;;;18.23;13.30;;;19.30;77.70;;;;;;5039970;28;20491;-46
2021/06/06 08:04:00;;;;;;;17.10;12.73;;;19.40;77.30;;;;;;5041222;28;20462;-46
2021/06/06 08:06:28;;;;;;;13.93;10.90;;;19.40;77.50;;;;;;5039870;28;20466;-46
2021/06/06 08:08:56;;;;;;;15.47;12.13;;;19.40;77.10;;;;;;5045181;28;20912;-47
2021/06/06 08:11:24;;;;;;;20.70;12.20;;;19.40;76.70;;;;;;5041195;28;20439;-47
2021/06/06 08:13:53;;;;;;;18.47;12.27;;;19.50;76.80;;;;;;5043683;28;20467;-46
2021/06/06 08:16:21;;;;;;;14.50;11.27;;;19.50;77.00;;;;;;5039552;28;20489;-47
2021/06/06 08:18:49;;;;;;;19.57;11.90;;;19.60;77.00;;;;;;5049155;28;20463;-47
2021/06/06 08:21:26;;;;;;;15.67;12.60;;;19.70;76.70;;;;;;5038917;28;20493;-46
2021/06/06 08:23:55;;;;;;;15.60;12.37;;;19.70;75.80;;;;;;5040510;28;20513;-47
2021/06/06 08:26:25;;;;;;;16.93;11.80;;;19.70;76.00;;;;;;5039994;28;20797;-46
2021/06/06 08:28:55;;;;;;;15.50;12.50;;;19.80;76.20;;;;;;5044482;28;20465;-47
2021/06/06 08:31:27;;;;;;;15.60;12.40;;;19.80;75.80;;;;;;5044316;28;20463;-46
2021/06/06 08:33:56;;;;;;;17.60;13.47;;;19.80;75.30;;;;;;5041304;28;20541;-46
2021/06/06 08:36:35;;;;;;;17.83;13.03;;;19.80;75.20;;;;;;5046181;28;20616;-46
2021/06/06 08:39:20;;;;;;;17.97;12.87;;;19.90;75.90;;;;;;5046437;28;20812;-46
2021/06/06 08:42:16;;;;;;;19.47;13.70;;;19.80;75.60;;;;;;5045091;28;20494;-45
2021/06/06 08:45:22;;;;;;;17.80;13.87;;;19.80;75.60;;;;;;5035845;28;20476;-46
2021/06/06 08:47:50;;;;;;;17.90;13.43;;;19.70;76.00;;;;;;5045760;28;20455;-46
2021/06/06 08:50:22;;;;;;;18.20;14.10;;;19.70;76.40;;;;;;5044461;28;20467;-46
2021/06/06 08:53:03;;;;;;;21.37;13.97;;;19.80;76.80;;;;;;5040059;28;20451;-46
2021/06/06 08:55:41;;;;;;;19.27;13.63;;;19.80;75.80;;;;;;5042410;28;20485;-46
2021/06/06 08:58:31;;;;;;;17.40;14.07;;;19.80;74.50;;;;;;5042095;28;20453;-46
2021/06/06 09:01:24;;;;;;;20.33;13.97;;;19.80;75.00;;;;;;5038106;28;20491;-45
2021/06/06 09:03:56;;;;;;;15.80;12.53;;;19.80;75.30;;;;;;5040691;28;20459;-46
2021/06/06 09:06:43;;;;;;;17.90;12.97;;;19.80;75.10;;;;;;5038619;28;20458;-46
2021/06/06 09:09:13;;;;;;;16.77;12.90;;;19.80;74.60;;;;;;5046622;28;20486;-46
2021/06/06 09:11:41;;;;;;;18.43;12.93;;;19.80;74.20;;;;;;5041620;28;20473;-46
2021/06/06 09:14:09;;;;;;;17.57;12.93;;;19.80;74.80;;;;;;5040678;28;20466;-45
2021/06/06 09:17:15;;;;;;;16.50;12.63;;;19.70;75.10;;;;;;5044090;28;20463;-46
2021/06/06 09:19:52;;;;;;;14.73;11.80;;;19.80;75.50;;;;;;5036687;28;20461;-46
2021/06/06 09:22:44;;;;;;;17.20;13.20;;;19.90;74.70;;;;;;5036957;28;20454;-46
2021/06/06 09:25:26;;;;;;;18.37;13.80;;;19.90;74.00;;;;;;5036327;28;20462;-45
2021/06/06 09:28:12;;;;;;;17.77;11.93;;;19.90;74.00;;;;;;5042384;28;20460;-46
2021/06/06 09:30:42;;;;;;;17.33;12.87;;;20.00;74.50;;;;;;5042473;28;20459;-46
2021/06/06 09:33:13;;;;;;;15.80;12.03;;;20.00;74.80;;;;;;5042258;28;20473;-45
2021/06/06 09:35:54;;;;;;;15.90;12.93;;;20.00;74.30;;;;;;5039526;28;20478;-45
2021/06/06 09:38:32;;;;;;;17.93;13.60;;;20.00;75.60;;;;;;5039511;28;20540;-46
2021/06/06 09:41:20;;;;;;;14.57;11.50;;;20.10;74.20;;;;;;5038692;28;20494;-46
2021/06/06 09:44:04;;;;;;;16.80;12.00;;;20.10;73.40;;;;;;5039083;28;20462;-46
2021/06/06 09:46:36;;;;;;;17.33;12.00;;;20.10;73.50;;;;;;5042498;28;20466;-46
2021/06/06 09:49:30;;;;;;;18.77;12.80;;;20.20;73.00;;;;;;5036937;28;20458;-45
2021/06/06 09:52:13;;;;;;;14.67;11.17;;;20.20;73.70;;;;;;5039395;28;20529;-46
2021/06/06 09:54:53;;;;;;;15.60;11.33;;;20.20;73.50;;;;;;5040757;28;20498;-46
2021/06/06 09:57:32;;;;;;;13.90;10.70;;;20.20;74.70;;;;;;5040301;28;20961;-45
2021/06/06 10:00:27;;;;;;;13.47;10.70;;;20.20;74.20;;;;;;5038393;28;20463;-46
2021/06/06 10:03:06;;;;;;;14.10;10.00;;;20.30;73.70;;;;;;5036118;28;20470;-46
2021/06/06 10:05:41;;;;;;;15.57;11.03;;;20.30;74.20;;;;;;5041058;28;20818;-46
2021/06/06 10:08:35;;;;;;;12.27;10.73;;;20.30;73.10;;;;;;5039189;28;20504;-46
2021/06/06 10:11:17;;;;;;;10.60;9.43;;;20.40;73.50;;;;;;5038657;28;20974;-46
2021/06/06 10:13:52;;;;;;;12.50;9.57;;;20.40;73.20;;;;;;5038351;28;20473;-46
2021/06/06 10:16:32;;;;;;;15.83;12.10;;;20.40;74.20;;;;;;5038672;28;20460;-46
2021/06/06 10:19:16;;;;;;;12.87;10.93;;;20.40;73.10;;;;;;5039455;28;20490;-46
2021/06/06 10:21:45;;;;;;;13.57;10.10;;;20.40;73.90;;;;;;5042530;28;20505;-46
2021/06/06 10:24:25;;;;;;;13.67;11.20;;;20.40;73.60;;;;;;5037598;28;20494;-46
2021/06/06 10:27:05;;;;;;;16.03;12.77;;;20.40;74.30;;;;;;5036544;28;20455;-46
2021/06/06 10:29:39;;;;;;;12.87;10.80;;;20.40;72.90;;;;;;5039494;28;20458;-46
2021/06/06 10:32:15;;;;;;;17.80;13.13;;;20.50;73.50;;;;;;5038890;28;20468;-46
2021/06/06 10:35:05;;;;;;;12.87;9.87;;;20.50;73.60;;;;;;5042277;28;21006;-46
2021/06/06 10:37:33;;;;;;;14.23;10.67;;;20.60;74.10;;;;;;5040024;28;21109;-46
2021/06/06 10:40:08;;;;;;;13.20;10.63;;;20.60;74.40;;;;;;5039350;28;20478;-46
2021/06/06 10:42:44;;;;;;;12.20;10.27;;;20.60;73.90;;;;;;5040355;28;20462;-46
2021/06/06 10:45:22;;;;;;;14.67;10.63;;;20.70;73.30;;;;;;5040301;28;20977;-46
2021/06/06 10:48:13;;;;;;;14.30;11.00;;;20.70;72.90;;;;;;5041246;28;20922;-46
2021/06/06 10:50:44;;;;;;;11.13;9.40;;;20.80;72.70;;;;;;5041721;28;20478;-46
2021/06/06 10:53:29;;;;;;;10.70;8.73;;;20.80;73.00;;;;;;5042070;28;20458;-46
2021/06/06 10:56:09;;;;;;;9.93;8.97;;;20.90;73.00;;;;;;5040184;28;21018;-46
2021/06/06 10:58:59;;;;;;;12.73;10.00;;;20.90;71.90;;;;;;5038680;28;20998;-44
2021/06/06 11:01:29;;;;;;;12.37;9.70;;;21.00;71.50;;;;;;5039949;28;21192;-46
2021/06/06 11:04:12;;;;;;;11.37;9.67;;;21.00;73.00;;;;;;5038211;28;20486;-46
2021/06/06 11:06:47;;;;;;;10.50;9.20;;;21.10;71.70;;;;;;5040807;28;20526;-45
2021/06/06 11:09:33;;;;;;;12.97;9.83;;;21.00;71.80;;;;;;5044951;28;20488;-46
2021/06/06 11:12:11;;;;;;;12.63;10.67;;;21.00;72.00;;;;;;5041755;28;20513;-46
2021/06/06 11:14:48;;;;;;;13.17;10.00;;;21.10;71.80;;;;;;5038810;28;20463;-45
2021/06/06 11:17:33;;;;;;;11.30;8.87;;;21.20;71.40;;;;;;5038282;28;20458;-46
2021/06/06 11:20:27;;;;;;;13.83;10.87;;;21.20;71.60;;;;;;5042902;28;20471;-46
2021/06/06 11:22:56;;;;;;;14.53;10.17;;;21.20;71.30;;;;;;5039134;28;20474;-46
2021/06/06 11:25:37;;;;;;;12.33;10.57;;;21.20;70.90;;;;;;5044304;28;20450;-46
2021/06/06 11:28:22;;;;;;;14.43;10.43;;;21.20;71.40;;;;;;5042150;28;20986;-46
2021/06/06 11:30:53;;;;;;;11.63;9.27;;;21.20;71.40;;;;;;5038113;28;20934;-46
2021/06/06 11:33:57;;;;;;;11.93;9.60;;;21.20;71.70;;;;;;5042784;28;20566;-46
2021/06/06 11:36:37;;;;;;;13.47;9.77;;;21.20;71.90;;;;;;5039495;28;20466;-46
2021/06/06 11:39:13;;;;;;;12.00;9.83;;;21.20;72.40;;;;;;5041272;28;20467;-46
2021/06/06 11:41:45;;;;;;;11.73;9.63;;;21.20;71.00;;;;;;5038992;28;20986;-46
2021/06/06 11:44:21;;;;;;;13.50;9.60;;;21.30;71.40;;;;;;5041133;28;20471;-46
2021/06/06 11:47:11;;;;;;;11.77;9.90;;;21.30;71.10;;;;;;5038809;28;20469;-46
2021/06/06 11:49:56;;;;;;;11.80;9.97;;;21.30;70.40;;;;;;5042720;28;20467;-46
2021/06/06 11:52:46;;;;;;;12.90;10.17;;;21.30;71.90;;;;;;5040913;28;20463;-46
2021/06/06 11:55:28;;;;;;;12.30;9.57;;;21.30;71.30;;;;;;5041741;28;20470;-46
2021/06/06 11:58:18;;;;;;;10.83;9.73;;;21.30;71.40;;;;;;5038068;28;20466;-46
2021/06/06 12:01:18;;;;;;;10.60;8.97;;;21.30;70.40;;;;;;5039770;28;20945;-46
2021/06/06 12:03:47;;;;;;;11.57;9.20;;;21.40;71.00;;;;;;5040483;28;20466;-46
2021/06/06 12:06:23;;;;;;;11.40;8.80;;;21.40;70.20;;;;;;5041240;28;20459;-46
2021/06/06 12:08:59;;;;;;;9.73;7.87;;;21.40;70.30;;;;;;5040917;28;20510;-46
2021/06/06 12:11:31;;;;;;;8.63;7.03;;;21.40;69.70;;;;;;5042681;28;20466;-45
2021/06/06 12:14:16;;;;;;;10.50;9.07;;;21.40;69.10;;;;;;5039264;28;20482;-46
2021/06/06 12:16:51;;;;;;;9.30;7.90;;;21.40;70.30;;;;;;5043211;28;20952;-46
2021/06/06 12:19:24;;;;;;;9.07;8.13;;;21.40;70.90;;;;;;5043016;28;20458;-46
2021/06/06 12:22:05;;;;;;;8.40;7.20;;;21.30;70.40;;;;;;5041958;28;20484;-46
2021/06/06 12:25:14;;;;;;;9.60;8.60;;;21.20;70.10;;;;;;5040710;28;21249;-46
2021/06/06 12:27:52;;;;;;;10.00;8.50;;;21.10;70.60;;;;;;5039125;28;20466;-46
2021/06/06 12:30:30;;;;;;;9.33;8.20;;;21.10;70.30;;;;;;5036882;28;20805;-46
2021/06/06 12:33:13;;;;;;;7.97;7.17;;;21.00;70.90;;;;;;5040636;28;20815;-46
2021/06/06 12:35:50;;;;;;;8.03;7.23;;;21.00;70.80;;;;;;5042562;28;20455;-46
2021/06/06 12:38:21;;;;;;;8.93;7.50;;;21.00;71.50;;;;;;5039812;28;20984;-46
2021/06/06 12:40:50;;;;;;;10.00;8.00;;;21.00;70.70;;;;;;5038847;28;20494;-46
2021/06/06 12:43:25;;;;;;;8.37;6.80;;;21.00;71.40;;;;;;5038989;28;20455;-46
2021/06/06 12:46:00;;;;;;;10.87;8.60;;;20.90;71.90;;;;;;5042222;28;20826;-46
2021/06/06 12:48:36;;;;;;;8.43;7.37;;;20.90;71.70;;;;;;5039196;28;20462;-46
2021/06/06 12:51:20;;;;;;;8.30;7.30;;;20.90;71.50;;;;;;5039535;28;20486;-46
2021/06/06 12:53:51;;;;;;;7.23;6.53;;;20.90;70.90;;;;;;5042005;28;20459;-46
2021/06/06 12:56:31;;;;;;;8.13;7.23;;;20.80;72.00;;;;;;5038265;28;20885;-46
2021/06/06 12:59:13;;;;;;;8.53;7.10;;;20.70;72.20;;;;;;5041552;28;20478;-46
2021/06/06 13:01:42;;;;;;;9.00;7.70;;;20.70;72.60;;;;;;5041473;28;20474;-46
2021/06/06 13:04:24;;;;;;;9.50;7.97;;;20.60;72.50;;;;;;5041084;28;20461;-46